TAF CYCA 230740Z 2308/2320 18010G20KT P6SM OVC050
TEMPO 2308/2318 OVC020
BECMG 2312/2314 18015G25KT
FM231800 19017G27KT P6SM OVC030 RMK FCST BASED ON AUTO OBS. NXT FCST BY 231400Z
From batch tds/tafs/production/2022/9/23/h07_m59_tafs.cache.xml
Issued (9 days ago)
Forecasts
2308/2312 18010G20KT P6SM OVC5000

---
fcst_time_to: '2022-09-23T12:00:00Z'
wind_gust_kt: '20'
sky_condition:
- sky_cover: OVC
  cloud_base_ft_agl: '5000'
wind_speed_kt: '10'
fcst_time_from: '2022-09-23T08:00:00Z'
wind_dir_degrees: '180'
visibility_statute_mi: '6.21'

TEMPO 2308/2318 OVC2000

---
fcst_time_to: '2022-09-23T18:00:00Z'
sky_condition:
- sky_cover: OVC
  cloud_base_ft_agl: '2000'
fcst_time_from: '2022-09-23T08:00:00Z'
change_indicator: TEMPO

BECMG 2314/2318 18015G25KT P6SM OVC5000

---
fcst_time_to: '2022-09-23T18:00:00Z'
wind_gust_kt: '25'
sky_condition:
- sky_cover: OVC
  cloud_base_ft_agl: '5000'
time_becoming: '2022-09-23T14:00:00Z'
wind_speed_kt: '15'
fcst_time_from: '2022-09-23T12:00:00Z'
change_indicator: BECMG
wind_dir_degrees: '180'
visibility_statute_mi: '6.21'

FM231800 19017G27KT P6SM OVC3000

---
fcst_time_to: '2022-09-23T20:00:00Z'
wind_gust_kt: '27'
sky_condition:
- sky_cover: OVC
  cloud_base_ft_agl: '3000'
wind_speed_kt: '17'
fcst_time_from: '2022-09-23T18:00:00Z'
change_indicator: FM
wind_dir_degrees: '190'
visibility_statute_mi: '6.21'

talk